sensor_id;sensor_type;location;lat;lon;timestamp;P1;durP1;ratioP1;P2;durP2;ratioP2
23496;SDS011;11925;48.122;11.560;2023-04-01T00:00:35;0.93;;;0.25;;
23496;SDS011;11925;48.122;11.560;2023-04-01T00:03:03;1.40;;;0.30;;
23496;SDS011;11925;48.122;11.560;2023-04-01T00:05:32;0.80;;;0.20;;
23496;SDS011;11925;48.122;11.560;2023-04-01T00:08:01;1.60;;;0.20;;
23496;SDS011;11925;48.122;11.560;2023-04-01T00:10:29;1.05;;;0.30;;
23496;SDS011;11925;48.122;11.560;2023-04-01T00:13:01;0.95;;;0.20;;
23496;SDS011;11925;48.122;11.560;2023-04-01T00:15:29;0.77;;;0.20;;
23496;SDS011;11925;48.122;11.560;2023-04-01T00:17:58;0.75;;;0.17;;
23496;SDS011;11925;48.122;11.560;2023-04-01T00:20:27;1.45;;;0.20;;
23496;SDS011;11925;48.122;11.560;2023-04-01T00:22:56;1.15;;;0.13;;
23496;SDS011;11925;48.122;11.560;2023-04-01T00:25:24;1.40;;;0.28;;
23496;SDS011;11925;48.122;11.560;2023-04-01T00:27:53;0.70;;;0.40;;
23496;SDS011;11925;48.122;11.560;2023-04-01T00:30:22;1.65;;;0.20;;
23496;SDS011;11925;48.122;11.560;2023-04-01T00:32:51;0.95;;;0.28;;
23496;SDS011;11925;48.122;11.560;2023-04-01T00:35:20;1.75;;;0.20;;
23496;SDS011;11925;48.122;11.560;2023-04-01T00:37:48;1.65;;;0.20;;
23496;SDS011;11925;48.122;11.560;2023-04-01T00:40:23;2.20;;;0.20;;
23496;SDS011;11925;48.122;11.560;2023-04-01T00:42:58;1.95;;;0.20;;
23496;SDS011;11925;48.122;11.560;2023-04-01T00:45:33;0.55;;;0.25;;
23496;SDS011;11925;48.122;11.560;2023-04-01T00:48:04;0.82;;;0.40;;
23496;SDS011;11925;48.122;11.560;2023-04-01T00:50:35;1.75;;;0.28;;
23496;SDS011;11925;48.122;11.560;2023-04-01T00:53:06;1.17;;;0.20;;
23496;SDS011;11925;48.122;11.560;2023-04-01T00:55:36;1.63;;;0.30;;
23496;SDS011;11925;48.122;11.560;2023-04-01T00:58:09;0.85;;;0.30;;
23496;SDS011;11925;48.122;11.560;2023-04-01T01:00:43;3.20;;;0.47;;
23496;SDS011;11925;48.122;11.560;2023-04-01T01:03:13;1.80;;;0.65;;
23496;SDS011;11925;48.122;11.560;2023-04-01T01:08:41;0.93;;;0.40;;
23496;SDS011;11925;48.122;11.560;2023-04-01T01:11:19;1.13;;;0.20;;
23496;SDS011;11925;48.122;11.560;2023-04-01T01:13:54;2.55;;;0.50;;
23496;SDS011;11925;48.122;11.560;2023-04-01T01:16:29;1.20;;;0.25;;
23496;SDS011;11925;48.122;11.560;2023-04-01T01:19:04;2.65;;;0.32;;
23496;SDS011;11925;48.122;11.560;2023-04-01T01:21:47;2.08;;;0.65;;
23496;SDS011;11925;48.122;11.560;2023-04-01T01:24:39;1.35;;;0.20;;
23496;SDS011;11925;48.122;11.560;2023-04-01T01:27:19;3.00;;;0.40;;
23496;SDS011;11925;48.122;11.560;2023-04-01T01:29:54;1.95;;;0.45;;
23496;SDS011;11925;48.122;11.560;2023-04-01T01:35:45;0.98;;;0.20;;
23496;SDS011;11925;48.122;11.560;2023-04-01T01:38:19;1.23;;;0.30;;
23496;SDS011;11925;48.122;11.560;2023-04-01T01:41:01;1.25;;;0.20;;
23496;SDS011;11925;48.122;11.560;2023-04-01T01:43:32;1.00;;;0.38;;
23496;SDS011;11925;48.122;11.560;2023-04-01T01:46:05;2.08;;;0.30;;
23496;SDS011;11925;48.122;11.560;2023-04-01T01:48:39;1.55;;;0.30;;
23496;SDS011;11925;48.122;11.560;2023-04-01T01:51:11;2.40;;;0.32;;
23496;SDS011;11925;48.122;11.560;2023-04-01T01:53:40;1.40;;;0.30;;
23496;SDS011;11925;48.122;11.560;2023-04-01T01:56:09;1.58;;;0.40;;
23496;SDS011;11925;48.122;11.560;2023-04-01T01:58:40;2.85;;;0.30;;
23496;SDS011;11925;48.122;11.560;2023-04-01T02:01:14;1.42;;;0.30;;
23496;SDS011;11925;48.122;11.560;2023-04-01T02:03:45;1.15;;;0.30;;
23496;SDS011;11925;48.122;11.560;2023-04-01T02:06:17;1.73;;;0.20;;
23496;SDS011;11925;48.122;11.560;2023-04-01T02:08:49;1.13;;;0.28;;
23496;SDS011;11925;48.122;11.560;2023-04-01T02:11:21;0.68;;;0.28;;
23496;SDS011;11925;48.122;11.560;2023-04-01T02:13:55;1.13;;;0.20;;
23496;SDS011;11925;48.122;11.560;2023-04-01T02:16:31;3.53;;;0.28;;
23496;SDS011;11925;48.122;11.560;2023-04-01T02:19:02;1.52;;;0.30;;
23496;SDS011;11925;48.122;11.560;2023-04-01T02:21:35;1.77;;;0.30;;
23496;SDS011;11925;48.122;11.560;2023-04-01T02:24:05;1.30;;;0.22;;
23496;SDS011;11925;48.122;11.560;2023-04-01T02:26:38;0.63;;;0.13;;
23496;SDS011;11925;48.122;11.560;2023-04-01T02:29:07;1.08;;;0.20;;
23496;SDS011;11925;48.122;11.560;2023-04-01T02:31:37;1.00;;;0.35;;
23496;SDS011;11925;48.122;11.560;2023-04-01T02:34:06;1.75;;;0.20;;
23496;SDS011;11925;48.122;11.560;2023-04-01T02:36:36;2.30;;;0.30;;
23496;SDS011;11925;48.122;11.560;2023-04-01T02:39:05;0.70;;;0.17;;
23496;SDS011;11925;48.122;11.560;2023-04-01T02:41:38;0.75;;;0.20;;
23496;SDS011;11925;48.122;11.560;2023-04-01T02:44:07;1.23;;;0.20;;
23496;SDS011;11925;48.122;11.560;2023-04-01T02:46:36;1.05;;;0.10;;
23496;SDS011;11925;48.122;11.560;2023-04-01T02:49:05;0.82;;;0.17;;
23496;SDS011;11925;48.122;11.560;2023-04-01T02:51:33;1.15;;;0.20;;
23496;SDS011;11925;48.122;11.560;2023-04-01T02:54:03;0.57;;;0.10;;
23496;SDS011;11925;48.122;11.560;2023-04-01T02:56:32;0.55;;;0.10;;
23496;SDS011;11925;48.122;11.560;2023-04-01T02:59:00;1.63;;;0.20;;
23496;SDS011;11925;48.122;11.560;2023-04-01T03:01:28;0.40;;;0.10;;
23496;SDS011;11925;48.122;11.560;2023-04-01T03:03:56;1.20;;;0.20;;
23496;SDS011;11925;48.122;11.560;2023-04-01T03:06:25;0.88;;;0.20;;
23496;SDS011;11925;48.122;11.560;2023-04-01T03:08:54;0.30;;;0.20;;
23496;SDS011;11925;48.122;11.560;2023-04-01T03:11:23;0.20;;;0.20;;
23496;SDS011;11925;48.122;11.560;2023-04-01T03:13:52;0.10;;;0.05;;
23496;SDS011;11925;48.122;11.560;2023-04-01T03:16:21;0.50;;;0.10;;
23496;SDS011;11925;48.122;11.560;2023-04-01T03:18:50;0.40;;;0.10;;
23496;SDS011;11925;48.122;11.560;2023-04-01T03:21:19;0.05;;;0.05;;
23496;SDS011;11925;48.122;11.560;2023-04-01T03:23:49;0.68;;;0.10;;
23496;SDS011;11925;48.122;11.560;2023-04-01T03:26:19;0.28;;;0.10;;
23496;SDS011;11925;48.122;11.560;2023-04-01T03:28:48;0.03;;;0.03;;
23496;SDS011;11925;48.122;11.560;2023-04-01T03:31:16;0.45;;;0.05;;
23496;SDS011;11925;48.122;11.560;2023-04-01T03:33:51;0.00;;;0.00;;
23496;SDS011;11925;48.122;11.560;2023-04-01T03:36:19;0.57;;;0.10;;
23496;SDS011;11925;48.122;11.560;2023-04-01T03:38:48;0.30;;;0.10;;
23496;SDS011;11925;48.122;11.560;2023-04-01T03:41:24;1.10;;;0.10;;
23496;SDS011;11925;48.122;11.560;2023-04-01T03:43:54;0.40;;;0.10;;
23496;SDS011;11925;48.122;11.560;2023-04-01T03:46:22;0.10;;;0.10;;
23496;SDS011;11925;48.122;11.560;2023-04-01T03:48:51;0.70;;;0.10;;
23496;SDS011;11925;48.122;11.560;2023-04-01T03:51:19;0.45;;;0.10;;
23496;SDS011;11925;48.122;11.560;2023-04-01T03:53:48;0.73;;;0.10;;
23496;SDS011;11925;48.122;11.560;2023-04-01T03:56:17;0.10;;;0.10;;
23496;SDS011;11925;48.122;11.560;2023-04-01T03:58:47;0.10;;;0.10;;
23496;SDS011;11925;48.122;11.560;2023-04-01T04:01:16;0.10;;;0.10;;
23496;SDS011;11925;48.122;11.560;2023-04-01T04:03:49;0.35;;;0.10;;
23496;SDS011;11925;48.122;11.560;2023-04-01T04:06:20;0.30;;;0.10;;
23496;SDS011;11925;48.122;11.560;2023-04-01T04:08:49;0.30;;;0.20;;
23496;SDS011;11925;48.122;11.560;2023-04-01T04:11:18;0.30;;;0.20;;
23496;SDS011;11925;48.122;11.560;2023-04-01T04:13:50;1.08;;;0.20;;
23496;SDS011;11925;48.122;11.560;2023-04-01T04:16:21;0.52;;;0.10;;
23496;SDS011;11925;48.122;11.560;2023-04-01T04:18:55;1.00;;;0.10;;
23496;SDS011;11925;48.122;11.560;2023-04-01T04:21:24;0.10;;;0.10;;
23496;SDS011;11925;48.122;11.560;2023-04-01T04:23:52;1.00;;;0.20;;
23496;SDS011;11925;48.122;11.560;2023-04-01T04:26:20;0.95;;;0.28;;
23496;SDS011;11925;48.122;11.560;2023-04-01T04:28:56;0.77;;;0.10;;
23496;SDS011;11925;48.122;11.560;2023-04-01T04:31:25;1.35;;;0.15;;
23496;SDS011;11925;48.122;11.560;2023-04-01T04:33:58;0.40;;;0.10;;
23496;SDS011;11925;48.122;11.560;2023-04-01T04:36:28;1.08;;;0.13;;
23496;SDS011;11925;48.122;11.560;2023-04-01T04:38:56;1.65;;;0.20;;
23496;SDS011;11925;48.122;11.560;2023-04-01T04:41:28;1.30;;;0.20;;
23496;SDS011;11925;48.122;11.560;2023-04-01T04:43:58;0.57;;;0.10;;
23496;SDS011;11925;48.122;11.560;2023-04-01T04:46:27;0.10;;;0.10;;
23496;SDS011;11925;48.122;11.560;2023-04-01T04:49:04;1.42;;;0.20;;
23496;SDS011;11925;48.122;11.560;2023-04-01T04:51:33;0.93;;;0.20;;
23496;SDS011;11925;48.122;11.560;2023-04-01T04:54:02;1.35;;;0.20;;
23496;SDS011;11925;48.122;11.560;2023-04-01T04:56:58;1.17;;;0.20;;
23496;SDS011;11925;48.122;11.560;2023-04-01T04:59:32;1.05;;;0.10;;
23496;SDS011;11925;48.122;11.560;2023-04-01T05:02:08;1.85;;;0.20;;
23496;SDS011;11925;48.122;11.560;2023-04-01T05:04:37;0.82;;;0.20;;
23496;SDS011;11925;48.122;11.560;2023-04-01T05:07:08;1.27;;;0.40;;
23496;SDS011;11925;48.122;11.560;2023-04-01T05:09:37;0.43;;;0.17;;
23496;SDS011;11925;48.122;11.560;2023-04-01T05:12:06;0.93;;;0.30;;
23496;SDS011;11925;48.122;11.560;2023-04-01T05:14:55;2.40;;;0.32;;
23496;SDS011;11925;48.122;11.560;2023-04-01T05:17:24;0.63;;;0.10;;
23496;SDS011;11925;48.122;11.560;2023-04-01T05:19:53;0.50;;;0.15;;
23496;SDS011;11925;48.122;11.560;2023-04-01T05:22:21;0.77;;;0.20;;
23496;SDS011;11925;48.122;11.560;2023-04-01T05:24:49;1.13;;;0.40;;
23496;SDS011;11925;48.122;11.560;2023-04-01T05:27:18;0.93;;;0.10;;
23496;SDS011;11925;48.122;11.560;2023-04-01T05:29:46;2.92;;;0.20;;
23496;SDS011;11925;48.122;11.560;2023-04-01T05:32:39;2.33;;;0.30;;
23496;SDS011;11925;48.122;11.560;2023-04-01T05:35:08;1.73;;;0.65;;
23496;SDS011;11925;48.122;11.560;2023-04-01T05:37:36;0.32;;;0.20;;
23496;SDS011;11925;48.122;11.560;2023-04-01T05:40:05;0.95;;;0.10;;
23496;SDS011;11925;48.122;11.560;2023-04-01T05:42:34;0.43;;;0.20;;
23496;SDS011;11925;48.122;11.560;2023-04-01T05:45:04;0.82;;;0.20;;
23496;SDS011;11925;48.122;11.560;2023-04-01T05:47:53;0.90;;;0.20;;
23496;SDS011;11925;48.122;11.560;2023-04-01T05:50:22;2.10;;;0.20;;
23496;SDS011;11925;48.122;11.560;2023-04-01T05:52:50;0.65;;;0.15;;
23496;SDS011;11925;48.122;11.560;2023-04-01T05:55:19;2.20;;;0.30;;
23496;SDS011;11925;48.122;11.560;2023-04-01T05:57:49;1.00;;;0.30;;
23496;SDS011;11925;48.122;11.560;2023-04-01T06:00:18;1.90;;;0.20;;
23496;SDS011;11925;48.122;11.560;2023-04-01T06:02:47;1.33;;;0.20;;
23496;SDS011;11925;48.122;11.560;2023-04-01T06:05:19;1.02;;;0.20;;
23496;SDS011;11925;48.122;11.560;2023-04-01T06:07:49;1.90;;;0.22;;
23496;SDS011;11925;48.122;11.560;2023-04-01T06:10:22;1.08;;;0.22;;
23496;SDS011;11925;48.122;11.560;2023-04-01T06:13:04;1.15;;;0.30;;
23496;SDS011;11925;48.122;11.560;2023-04-01T06:15:40;1.80;;;0.30;;
23496;SDS011;11925;48.122;11.560;2023-04-01T06:18:29;2.03;;;0.38;;
23496;SDS011;11925;48.122;11.560;2023-04-01T06:21:10;2.63;;;0.40;;
23496;SDS011;11925;48.122;11.560;2023-04-01T06:24:06;2.20;;;0.35;;
23496;SDS011;11925;48.122;11.560;2023-04-01T06:26:47;0.65;;;0.20;;
23496;SDS011;11925;48.122;11.560;2023-04-01T06:29:26;1.33;;;0.25;;
23496;SDS011;11925;48.122;11.560;2023-04-01T06:34:59;0.98;;;0.30;;
23496;SDS011;11925;48.122;11.560;2023-04-01T06:40:40;1.95;;;0.32;;
23496;SDS011;11925;48.122;11.560;2023-04-01T06:43:38;2.85;;;0.50;;
23496;SDS011;11925;48.122;11.560;2023-04-01T06:46:52;2.20;;;0.40;;
23496;SDS011;11925;48.122;11.560;2023-04-01T06:49:44;2.95;;;0.40;;
23496;SDS011;11925;48.122;11.560;2023-04-01T06:52:43;1.45;;;0.40;;
23496;SDS011;11925;48.122;11.560;2023-04-01T06:55:44;2.28;;;0.43;;
23496;SDS011;11925;48.122;11.560;2023-04-01T06:58:41;1.05;;;0.30;;
23496;SDS011;11925;48.122;11.560;2023-04-01T07:01:16;2.80;;;0.30;;
23496;SDS011;11925;48.122;11.560;2023-04-01T07:03:50;3.10;;;0.38;;
23496;SDS011;11925;48.122;11.560;2023-04-01T07:06:24;1.65;;;0.30;;
23496;SDS011;11925;48.122;11.560;2023-04-01T07:08:59;2.55;;;0.68;;
23496;SDS011;11925;48.122;11.560;2023-04-01T07:11:53;2.80;;;0.25;;
23496;SDS011;11925;48.122;11.560;2023-04-01T07:15:01;2.90;;;0.32;;
23496;SDS011;11925;48.122;11.560;2023-04-01T07:17:34;1.85;;;0.30;;
23496;SDS011;11925;48.122;11.560;2023-04-01T07:20:10;2.08;;;0.70;;
23496;SDS011;11925;48.122;11.560;2023-04-01T07:22:43;0.75;;;0.43;;
23496;SDS011;11925;48.122;11.560;2023-04-01T07:25:29;2.72;;;0.50;;
23496;SDS011;11925;48.122;11.560;2023-04-01T07:28:22;2.05;;;0.38;;
23496;SDS011;11925;48.122;11.560;2023-04-01T07:31:01;2.80;;;0.45;;
23496;SDS011;11925;48.122;11.560;2023-04-01T07:33:39;1.70;;;0.30;;
23496;SDS011;11925;48.122;11.560;2023-04-01T07:36:13;2.85;;;0.45;;
23496;SDS011;11925;48.122;11.560;2023-04-01T07:38:50;0.73;;;0.30;;
23496;SDS011;11925;48.122;11.560;2023-04-01T07:41:49;1.98;;;0.40;;
23496;SDS011;11925;48.122;11.560;2023-04-01T07:44:27;2.55;;;0.40;;
23496;SDS011;11925;48.122;11.560;2023-04-01T07:47:08;1.27;;;0.40;;
23496;SDS011;11925;48.122;11.560;2023-04-01T07:49:49;1.80;;;0.30;;
23496;SDS011;11925;48.122;11.560;2023-04-01T07:52:33;1.65;;;0.43;;
23496;SDS011;11925;48.122;11.560;2023-04-01T07:55:18;1.02;;;0.55;;
23496;SDS011;11925;48.122;11.560;2023-04-01T07:57:53;3.38;;;0.75;;
23496;SDS011;11925;48.122;11.560;2023-04-01T08:00:31;3.28;;;1.20;;
23496;SDS011;11925;48.122;11.560;2023-04-01T08:03:18;3.72;;;1.65;;
23496;SDS011;11925;48.122;11.560;2023-04-01T08:06:00;4.82;;;2.15;;
23496;SDS011;11925;48.122;11.560;2023-04-01T08:08:36;4.05;;;1.40;;
23496;SDS011;11925;48.122;11.560;2023-04-01T08:11:34;2.88;;;0.80;;
23496;SDS011;11925;48.122;11.560;2023-04-01T08:14:31;2.53;;;0.82;;
23496;SDS011;11925;48.122;11.560;2023-04-01T08:17:32;3.50;;;0.40;;
23496;SDS011;11925;48.122;11.560;2023-04-01T08:20:11;1.85;;;0.50;;
23496;SDS011;11925;48.122;11.560;2023-04-01T08:22:52;2.33;;;0.52;;
23496;SDS011;11925;48.122;11.560;2023-04-01T08:25:32;1.95;;;0.40;;
23496;SDS011;11925;48.122;11.560;2023-04-01T08:28:09;2.78;;;0.43;;
23496;SDS011;11925;48.122;11.560;2023-04-01T08:30:43;0.93;;;0.38;;
23496;SDS011;11925;48.122;11.560;2023-04-01T08:33:19;1.02;;;0.30;;
23496;SDS011;11925;48.122;11.560;2023-04-01T08:35:57;1.65;;;0.40;;
23496;SDS011;11925;48.122;11.560;2023-04-01T08:38:32;0.80;;;0.30;;
23496;SDS011;11925;48.122;11.560;2023-04-01T08:41:20;1.33;;;0.20;;
23496;SDS011;11925;48.122;11.560;2023-04-01T08:44:27;1.20;;;0.20;;
23496;SDS011;11925;48.122;11.560;2023-04-01T08:47:16;1.67;;;0.10;;
23496;SDS011;11925;48.122;11.560;2023-04-01T08:50:22;1.38;;;0.20;;
23496;SDS011;11925;48.122;11.560;2023-04-01T08:53:20;1.13;;;0.20;;
23496;SDS011;11925;48.122;11.560;2023-04-01T08:56:03;1.52;;;0.40;;
23496;SDS011;11925;48.122;11.560;2023-04-01T08:58:49;1.50;;;0.32;;
23496;SDS011;11925;48.122;11.560;2023-04-01T09:04:52;2.17;;;0.40;;
23496;SDS011;11925;48.122;11.560;2023-04-01T09:07:49;1.33;;;0.57;;
23496;SDS011;11925;48.122;11.560;2023-04-01T09:10:30;1.77;;;0.40;;
23496;SDS011;11925;48.122;11.560;2023-04-01T09:13:50;1.55;;;0.32;;
23496;SDS011;11925;48.122;11.560;2023-04-01T09:19:42;0.50;;;0.20;;
23496;SDS011;11925;48.122;11.560;2023-04-01T09:22:38;0.98;;;0.28;;
23496;SDS011;11925;48.122;11.560;2023-04-01T09:25:19;0.68;;;0.22;;
23496;SDS011;11925;48.122;11.560;2023-04-01T09:27:56;1.50;;;0.30;;
23496;SDS011;11925;48.122;11.560;2023-04-01T09:33:43;0.75;;;0.22;;
23496;SDS011;11925;48.122;11.560;2023-04-01T09:36:47;1.27;;;0.32;;
23496;SDS011;11925;48.122;11.560;2023-04-01T09:39:29;0.70;;;0.20;;
23496;SDS011;11925;48.122;11.560;2023-04-01T09:42:26;1.95;;;0.25;;
23496;SDS011;11925;48.122;11.560;2023-04-01T09:45:19;1.35;;;0.40;;
23496;SDS011;11925;48.122;11.560;2023-04-01T09:48:02;1.05;;;0.32;;
23496;SDS011;11925;48.122;11.560;2023-04-01T09:50:42;0.70;;;0.28;;
23496;SDS011;11925;48.122;11.560;2023-04-01T09:53:24;0.10;;;0.10;;
23496;SDS011;11925;48.122;11.560;2023-04-01T09:56:19;0.93;;;0.20;;
23496;SDS011;11925;48.122;11.560;2023-04-01T09:59:10;0.90;;;0.10;;
23496;SDS011;11925;48.122;11.560;2023-04-01T10:05:39;1.20;;;0.10;;
23496;SDS011;11925;48.122;11.560;2023-04-01T10:08:55;0.25;;;0.10;;
23496;SDS011;11925;48.122;11.560;2023-04-01T10:11:57;0.68;;;0.20;;
23496;SDS011;11925;48.122;11.560;2023-04-01T10:14:56;0.50;;;0.20;;
23496;SDS011;11925;48.122;11.560;2023-04-01T10:17:56;0.17;;;0.10;;
23496;SDS011;11925;48.122;11.560;2023-04-01T10:20:54;0.38;;;0.17;;
23496;SDS011;11925;48.122;11.560;2023-04-01T10:23:51;1.55;;;0.28;;
23496;SDS011;11925;48.122;11.560;2023-04-01T10:26:48;0.77;;;0.20;;
23496;SDS011;11925;48.122;11.560;2023-04-01T10:30:03;0.50;;;0.30;;
23496;SDS011;11925;48.122;11.560;2023-04-01T10:43:15;0.85;;;0.20;;
23496;SDS011;11925;48.122;11.560;2023-04-01T10:49:28;0.40;;;0.20;;
23496;SDS011;11925;48.122;11.560;2023-04-01T10:55:35;1.70;;;0.25;;
23496;SDS011;11925;48.122;11.560;2023-04-01T10:58:58;0.35;;;0.15;;
23496;SDS011;11925;48.122;11.560;2023-04-01T11:12:06;1.50;;;0.13;;
23496;SDS011;11925;48.122;11.560;2023-04-01T11:15:06;0.35;;;0.10;;
23496;SDS011;11925;48.122;11.560;2023-04-01T11:18:07;0.68;;;0.20;;
23496;SDS011;11925;48.122;11.560;2023-04-01T11:28:00;0.60;;;0.30;;
23496;SDS011;11925;48.122;11.560;2023-04-01T11:33:38;0.30;;;0.10;;
23496;SDS011;11925;48.122;11.560;2023-04-01T11:36:25;0.20;;;0.13;;
23496;SDS011;11925;48.122;11.560;2023-04-01T11:39:08;2.30;;;0.15;;
23496;SDS011;11925;48.122;11.560;2023-04-01T11:42:14;0.28;;;0.10;;
23496;SDS011;11925;48.122;11.560;2023-04-01T11:45:15;0.20;;;0.10;;
23496;SDS011;11925;48.122;11.560;2023-04-01T11:47:55;1.58;;;0.20;;
23496;SDS011;11925;48.122;11.560;2023-04-01T11:50:39;0.30;;;0.10;;
23496;SDS011;11925;48.122;11.560;2023-04-01T11:53:23;1.33;;;0.20;;
23496;SDS011;11925;48.122;11.560;2023-04-01T11:56:06;0.45;;;0.45;;
23496;SDS011;11925;48.122;11.560;2023-04-01T12:01:36;0.30;;;0.20;;
23496;SDS011;11925;48.122;11.560;2023-04-01T12:07:32;0.25;;;0.10;;
23496;SDS011;11925;48.122;11.560;2023-04-01T12:10:19;0.65;;;0.20;;
23496;SDS011;11925;48.122;11.560;2023-04-01T12:12:52;0.30;;;0.10;;
23496;SDS011;11925;48.122;11.560;2023-04-01T12:15:29;0.57;;;0.20;;
23496;SDS011;11925;48.122;11.560;2023-04-01T12:18:09;11.57;;;0.70;;
23496;SDS011;11925;48.122;11.560;2023-04-01T12:20:48;37.72;;;20.98;;
23496;SDS011;11925;48.122;11.560;2023-04-01T12:23:31;134.98;;;70.65;;
23496;SDS011;11925;48.122;11.560;2023-04-01T12:26:25;205.63;;;107.63;;
23496;SDS011;11925;48.122;11.560;2023-04-01T12:29:18;169.13;;;94.22;;
23496;SDS011;11925;48.122;11.560;2023-04-01T12:31:59;92.30;;;50.75;;
23496;SDS011;11925;48.122;11.560;2023-04-01T12:34:48;135.40;;;67.15;;
23496;SDS011;11925;48.122;11.560;2023-04-01T12:37:29;75.47;;;39.30;;
23496;SDS011;11925;48.122;11.560;2023-04-01T12:40:17;82.45;;;42.78;;
23496;SDS011;11925;48.122;11.560;2023-04-01T12:43:12;42.28;;;21.55;;
23496;SDS011;11925;48.122;11.560;2023-04-01T12:46:03;80.15;;;39.13;;
23496;SDS011;11925;48.122;11.560;2023-04-01T12:48:56;47.88;;;26.92;;
23496;SDS011;11925;48.122;11.560;2023-04-01T12:51:56;42.13;;;24.02;;
23496;SDS011;11925;48.122;11.560;2023-04-01T12:54:48;65.90;;;39.38;;
23496;SDS011;11925;48.122;11.560;2023-04-01T12:57:33;126.00;;;68.75;;
23496;SDS011;11925;48.122;11.560;2023-04-01T13:00:22;88.32;;;46.70;;
23496;SDS011;11925;48.122;11.560;2023-04-01T13:03:07;47.78;;;27.38;;
23496;SDS011;11925;48.122;11.560;2023-04-01T13:05:54;27.13;;;16.02;;
23496;SDS011;11925;48.122;11.560;2023-04-01T13:08:54;18.55;;;10.50;;
23496;SDS011;11925;48.122;11.560;2023-04-01T13:11:30;13.55;;;6.78;;
23496;SDS011;11925;48.122;11.560;2023-04-01T13:17:22;4.40;;;2.35;;
23496;SDS011;11925;48.122;11.560;2023-04-01T13:20:00;4.47;;;1.52;;
23496;SDS011;11925;48.122;11.560;2023-04-01T13:22:38;3.70;;;1.60;;
23496;SDS011;11925;48.122;11.560;2023-04-01T13:25:20;1.95;;;0.98;;
23496;SDS011;11925;48.122;11.560;2023-04-01T13:27:58;1.70;;;0.60;;
23496;SDS011;11925;48.122;11.560;2023-04-01T13:30:34;1.13;;;0.52;;
23496;SDS011;11925;48.122;11.560;2023-04-01T13:33:12;6.20;;;3.00;;
23496;SDS011;11925;48.122;11.560;2023-04-01T13:35:51;7.10;;;3.33;;
23496;SDS011;11925;48.122;11.560;2023-04-01T13:38:31;3.90;;;1.95;;
23496;SDS011;11925;48.122;11.560;2023-04-01T13:41:20;4.28;;;1.65;;
23496;SDS011;11925;48.122;11.560;2023-04-01T13:43:57;2.75;;;1.00;;
23496;SDS011;11925;48.122;11.560;2023-04-01T13:46:35;2.92;;;0.75;;
23496;SDS011;11925;48.122;11.560;2023-04-01T13:49:36;1.45;;;0.50;;
23496;SDS011;11925;48.122;11.560;2023-04-01T13:52:18;1.00;;;0.50;;
23496;SDS011;11925;48.122;11.560;2023-04-01T13:58:07;0.55;;;0.30;;
23496;SDS011;11925;48.122;11.560;2023-04-01T14:01:00;1.48;;;0.40;;
23496;SDS011;11925;48.122;11.560;2023-04-01T14:03:43;0.50;;;0.30;;
23496;SDS011;11925;48.122;11.560;2023-04-01T14:06:34;0.80;;;0.40;;
23496;SDS011;11925;48.122;11.560;2023-04-01T14:09:25;1.35;;;0.40;;
23496;SDS011;11925;48.122;11.560;2023-04-01T14:12:09;0.80;;;0.40;;
23496;SDS011;11925;48.122;11.560;2023-04-01T14:14:51;0.43;;;0.30;;
23496;SDS011;11925;48.122;11.560;2023-04-01T14:17:31;0.43;;;0.30;;
23496;SDS011;11925;48.122;11.560;2023-04-01T14:20:22;1.00;;;0.30;;
23496;SDS011;11925;48.122;11.560;2023-04-01T14:23:04;0.63;;;0.40;;
23496;SDS011;11925;48.122;11.560;2023-04-01T14:29:07;1.60;;;0.40;;
23496;SDS011;11925;48.122;11.560;2023-04-01T14:31:46;1.35;;;0.60;;
23496;SDS011;11925;48.122;11.560;2023-04-01T14:34:25;1.88;;;0.90;;
23496;SDS011;11925;48.122;11.560;2023-04-01T14:37:12;2.08;;;1.20;;
23496;SDS011;11925;48.122;11.560;2023-04-01T14:43:08;0.80;;;0.57;;
23496;SDS011;11925;48.122;11.560;2023-04-01T14:46:05;1.00;;;0.52;;
23496;SDS011;11925;48.122;11.560;2023-04-01T14:48:55;0.70;;;0.50;;
23496;SDS011;11925;48.122;11.560;2023-04-01T14:51:28;0.52;;;0.35;;
23496;SDS011;11925;48.122;11.560;2023-04-01T14:54:00;0.47;;;0.30;;
23496;SDS011;11925;48.122;11.560;2023-04-01T14:56:36;0.85;;;0.40;;
23496;SDS011;11925;48.122;11.560;2023-04-01T14:59:10;0.60;;;0.35;;
23496;SDS011;11925;48.122;11.560;2023-04-01T15:01:45;0.85;;;0.30;;
23496;SDS011;11925;48.122;11.560;2023-04-01T15:07:17;0.40;;;0.20;;
23496;SDS011;11925;48.122;11.560;2023-04-01T15:09:58;0.73;;;0.22;;
23496;SDS011;11925;48.122;11.560;2023-04-01T15:12:36;1.92;;;0.30;;
23496;SDS011;11925;48.122;11.560;2023-04-01T15:15:28;0.22;;;0.20;;
23496;SDS011;11925;48.122;11.560;2023-04-01T15:18:16;0.38;;;0.10;;
23496;SDS011;11925;48.122;11.560;2023-04-01T15:20:56;1.08;;;0.35;;
23496;SDS011;11925;48.122;11.560;2023-04-01T15:23:42;0.65;;;0.22;;
23496;SDS011;11925;48.122;11.560;2023-04-01T15:26:22;0.52;;;0.20;;
23496;SDS011;11925;48.122;11.560;2023-04-01T15:29:29;0.38;;;0.28;;
23496;SDS011;11925;48.122;11.560;2023-04-01T15:32:13;0.38;;;0.20;;
23496;SDS011;11925;48.122;11.560;2023-04-01T15:34:49;0.40;;;0.20;;
23496;SDS011;11925;48.122;11.560;2023-04-01T15:37:30;0.38;;;0.20;;
23496;SDS011;11925;48.122;11.560;2023-04-01T15:40:07;1.98;;;0.30;;
23496;SDS011;11925;48.122;11.560;2023-04-01T15:42:49;3.78;;;1.60;;
23496;SDS011;11925;48.122;11.560;2023-04-01T15:45:36;1.38;;;0.82;;
23496;SDS011;11925;48.122;11.560;2023-04-01T15:48:20;1.48;;;0.60;;
23496;SDS011;11925;48.122;11.560;2023-04-01T15:51:10;1.58;;;0.50;;
23496;SDS011;11925;48.122;11.560;2023-04-01T15:53:59;1.73;;;0.73;;
23496;SDS011;11925;48.122;11.560;2023-04-01T15:56:53;1.55;;;0.60;;
23496;SDS011;11925;48.122;11.560;2023-04-01T15:59:42;2.42;;;0.70;;
23496;SDS011;11925;48.122;11.560;2023-04-01T16:02:22;2.15;;;0.68;;
23496;SDS011;11925;48.122;11.560;2023-04-01T16:04:59;0.90;;;0.40;;
23496;SDS011;11925;48.122;11.560;2023-04-01T16:07:39;0.77;;;0.30;;
23496;SDS011;11925;48.122;11.560;2023-04-01T16:13:24;2.15;;;0.30;;
23496;SDS011;11925;48.122;11.560;2023-04-01T16:16:05;3.40;;;0.32;;
23496;SDS011;11925;48.122;11.560;2023-04-01T16:18:44;0.77;;;0.30;;
23496;SDS011;11925;48.122;11.560;2023-04-01T16:21:27;0.60;;;0.25;;
23496;SDS011;11925;48.122;11.560;2023-04-01T16:24:08;0.38;;;0.20;;
23496;SDS011;11925;48.122;11.560;2023-04-01T16:26:45;0.43;;;0.30;;
23496;SDS011;11925;48.122;11.560;2023-04-01T16:29:20;0.32;;;0.20;;
23496;SDS011;11925;48.122;11.560;2023-04-01T16:31:55;0.50;;;0.22;;
23496;SDS011;11925;48.122;11.560;2023-04-01T16:34:34;1.48;;;0.40;;
23496;SDS011;11925;48.122;11.560;2023-04-01T16:37:06;1.63;;;0.35;;
23496;SDS011;11925;48.122;11.560;2023-04-01T16:39:42;0.28;;;0.20;;
23496;SDS011;11925;48.122;11.560;2023-04-01T16:42:28;0.20;;;0.20;;
23496;SDS011;11925;48.122;11.560;2023-04-01T16:45:08;1.02;;;0.45;;
23496;SDS011;11925;48.122;11.560;2023-04-01T16:47:47;1.55;;;0.40;;
23496;SDS011;11925;48.122;11.560;2023-04-01T16:50:19;0.70;;;0.40;;
23496;SDS011;11925;48.122;11.560;2023-04-01T16:52:59;0.60;;;0.32;;
23496;SDS011;11925;48.122;11.560;2023-04-01T16:55:45;4.47;;;2.15;;
23496;SDS011;11925;48.122;11.560;2023-04-01T16:58:20;1.73;;;1.00;;
23496;SDS011;11925;48.122;11.560;2023-04-01T17:00:53;1.25;;;0.70;;
23496;SDS011;11925;48.122;11.560;2023-04-01T17:03:28;1.15;;;0.50;;
23496;SDS011;11925;48.122;11.560;2023-04-01T17:06:03;1.60;;;0.45;;
23496;SDS011;11925;48.122;11.560;2023-04-01T17:08:49;0.63;;;0.30;;
23496;SDS011;11925;48.122;11.560;2023-04-01T17:11:31;2.15;;;0.35;;
23496;SDS011;11925;48.122;11.560;2023-04-01T17:14:09;2.10;;;0.50;;